Time;durP1;ratioP1;P1;durP2;ratioP2;P2;SDS_P1;SDS_P2;PMS_P1;PMS_P2;Temp;Humidity;BMP_temperature;BMP_pressure;BME280_temperature;BME280_humidity;BME280_pressure;Samples;Min_cycle;Max_cycle;Signal;HPM_P1;HPM_P2
2021/04/16 00:01:38;;;;;;;6.53;1.90;;;;;;;10.62;40.26;102406.66;5135965;27;20476;-51
2021/04/16 00:04:05;;;;;;;8.83;1.73;;;;;;;10.49;40.81;102414.38;5137221;27;20476;-50
2021/04/16 00:06:33;;;;;;;4.40;1.90;;;;;;;10.54;40.65;102407.84;5136177;27;20904;-55
2021/04/16 00:09:00;;;;;;;7.70;2.43;;;;;;;10.84;40.09;102407.22;5137515;27;20437;-54
2021/04/16 00:11:27;;;;;;;6.37;2.53;;;;;;;10.65;40.40;102405.97;5136164;27;20441;-53
2021/04/16 00:13:54;;;;;;;7.93;2.50;;;;;;;10.79;40.77;102400.09;5136606;27;20426;-49
2021/04/16 00:16:23;;;;;;;6.40;2.27;;;;;;;10.53;40.65;102399.19;5136075;27;20437;-53
2021/04/16 00:18:51;;;;;;;6.53;1.90;;;;;;;10.44;41.13;102400.25;5136263;27;20476;-52
2021/04/16 00:21:18;;;;;;;4.40;2.07;;;;;;;10.52;41.15;102394.81;5135505;27;20760;-52
2021/04/16 00:23:45;;;;;;;7.57;2.27;;;;;;;10.46;41.10;102399.56;5136392;27;20492;-53
2021/04/16 00:26:12;;;;;;;6.47;2.20;;;;;;;10.59;41.24;102390.97;5135807;27;20788;-55
2021/04/16 00:28:40;;;;;;;6.63;2.30;;;;;;;10.83;40.55;102387.38;5137063;27;20909;-50
2021/04/16 00:31:11;;;;;;;7.60;2.67;;;;;;;10.66;41.60;102393.19;5137014;27;20431;-50
2021/04/16 00:33:37;;;;;;;8.87;2.60;;;;;;;10.83;40.86;102393.44;5136392;27;20467;-50
2021/04/16 00:36:06;;;;;;;6.90;2.30;;;;;;;10.84;40.62;102384.91;5136962;27;20456;-52
2021/04/16 00:38:33;;;;;;;3.93;1.50;;;;;;;10.82;41.17;102383.88;5135547;27;20457;-52
2021/04/16 00:41:02;;;;;;;9.23;4.00;;;;;;;10.83;41.53;102382.19;5136709;27;20479;-51
2021/04/16 00:43:31;;;;;;;9.60;4.43;;;;;;;10.56;42.01;102385.59;5135074;27;20473;-54
2021/04/16 00:46:11;;;;;;;5.03;1.93;;;;;;;10.35;41.69;102385.91;5136781;27;20456;-54
2021/04/16 00:48:42;;;;;;;3.90;2.00;;;;;;;10.25;42.40;102393.78;5136229;27;20546;-51
2021/04/16 00:51:16;;;;;;;8.07;2.47;;;;;;;10.47;42.53;102385.88;5136483;27;20464;-50
2021/04/16 00:53:43;;;;;;;5.87;2.10;;;;;;;10.39;42.30;102384.41;5135821;27;20448;-50
2021/04/16 00:56:10;;;;;;;8.40;2.23;;;;;;;10.34;42.62;102373.78;5136648;27;20441;-52
2021/04/16 00:58:37;;;;;;;5.77;1.97;;;;;;;10.53;42.52;102375.09;5136350;27;20456;-50
2021/04/16 01:01:04;;;;;;;5.40;2.00;;;;;;;10.54;42.19;102376.88;5136315;27;20533;-53
2021/04/16 01:03:32;;;;;;;5.43;2.03;;;;;;;10.91;41.63;102379.34;5135280;27;20479;-52
2021/04/16 01:06:04;;;;;;;5.53;1.90;;;;;;;10.82;41.90;102372.66;5136194;27;20481;-52
2021/04/16 01:08:32;;;;;;;4.73;2.20;;;;;;;10.77;41.96;102373.25;5135193;27;20559;-52
2021/04/16 01:10:59;;;;;;;4.87;1.73;;;;;;;10.88;41.86;102373.94;5136345;27;20456;-50
2021/04/16 01:13:26;;;;;;;5.50;2.40;;;;;;;10.78;42.16;102369.00;5134007;27;20483;-53
2021/04/16 01:15:57;;;;;;;5.53;2.20;;;;;;;10.83;42.32;102380.53;5136185;27;20551;-55
2021/04/16 01:18:26;;;;;;;6.13;2.60;;;;;;;10.82;42.20;102373.53;5135473;27;20919;-53
2021/04/16 01:20:55;;;;;;;6.70;2.93;;;;;;;10.74;42.59;102365.31;5136259;28;20451;-50
2021/04/16 01:23:27;;;;;;;5.37;2.30;;;;;;;10.50;42.75;102368.03;5134065;27;20890;-53
2021/04/16 01:25:56;;;;;;;4.93;1.90;;;;;;;10.48;42.95;102372.19;5136345;28;20475;-50
2021/04/16 01:28:23;;;;;;;5.70;2.13;;;;;;;10.64;43.42;102366.38;5134928;27;20499;-52
2021/04/16 01:30:57;;;;;;;5.77;2.40;;;;;;;10.35;43.37;102367.84;5138806;27;20460;-50
2021/04/16 01:33:26;;;;;;;3.83;2.03;;;;;;;10.18;43.26;102376.09;5135174;27;20826;-50
2021/04/16 01:35:53;;;;;;;9.33;2.27;;;;;;;10.46;43.31;102368.59;5136173;27;20456;-52
2021/04/16 01:38:20;;;;;;;7.70;2.20;;;;;;;10.50;42.75;102372.28;5134861;27;20479;-51
2021/04/16 01:40:47;;;;;;;6.10;1.97;;;;;;;10.68;42.19;102364.91;5136270;27;20437;-51
2021/04/16 01:43:20;;;;;;;6.47;2.73;;;;;;;10.66;42.33;102371.63;5134313;27;20778;-52
2021/04/16 01:45:47;;;;;;;6.30;2.20;;;;;;;10.76;42.37;102363.72;5136257;27;20759;-50
2021/04/16 01:48:13;;;;;;;7.20;2.60;;;;;;;10.58;42.77;102365.97;5135151;27;20482;-51
2021/04/16 01:50:41;;;;;;;7.00;2.17;;;;;;;10.39;43.30;102377.59;5136121;27;20463;-52
2021/04/16 01:53:07;;;;;;;5.40;2.20;;;;;;;10.63;42.61;102372.34;5134181;27;20457;-51
2021/04/16 01:55:34;;;;;;;7.20;2.50;;;;;;;10.59;42.82;102370.34;5136023;27;20555;-52
2021/04/16 01:58:01;;;;;;;4.40;1.87;;;;;;;10.62;41.95;102367.94;5132495;27;20758;-52
2021/04/16 02:00:31;;;;;;;6.10;2.10;;;;;;;10.62;41.97;102360.22;5135972;28;20435;-52
2021/04/16 02:02:58;;;;;;;8.37;2.70;;;;;;;10.56;42.63;102367.53;5134705;27;20435;-50
2021/04/16 02:05:25;;;;;;;5.57;2.17;;;;;;;10.66;41.95;102357.06;5135926;28;20458;-52
2021/04/16 02:07:52;;;;;;;3.83;1.93;;;;;;;10.70;41.92;102352.97;5134992;27;20727;-54
2021/04/16 02:10:19;;;;;;;5.13;2.27;;;;;;;10.52;42.16;102357.81;5137459;27;20423;-51
2021/04/16 02:12:46;;;;;;;4.53;1.73;;;;;;;10.17;42.72;102354.59;5134287;27;20594;-49
2021/04/16 02:15:14;;;;;;;5.33;2.07;;;;;;;9.97;42.94;102360.94;5135793;27;20854;-48
2021/04/16 02:17:41;;;;;;;6.40;2.67;;;;;;;10.11;43.10;102352.47;5135000;27;20480;-51
2021/04/16 02:20:13;;;;;;;6.20;1.80;;;;;;;10.06;42.45;102355.53;5135823;27;20448;-51
2021/04/16 02:22:40;;;;;;;4.10;1.97;;;;;;;9.84;43.56;102354.91;5133967;27;20763;-54
2021/04/16 02:25:08;;;;;;;7.53;2.67;;;;;;;10.20;43.47;102353.91;5139088;27;20542;-50
2021/04/16 02:27:34;;;;;;;4.67;2.13;;;;;;;10.13;42.87;102356.06;5137921;27;20825;-51
2021/04/16 02:30:01;;;;;;;5.23;2.00;;;;;;;10.03;42.96;102365.59;5139402;27;20551;-49
2021/04/16 02:32:28;;;;;;;6.73;2.60;;;;;;;9.96;43.34;102359.16;5138318;27;20603;-50
2021/04/16 02:34:55;;;;;;;4.07;1.90;;;;;;;10.03;42.60;102351.03;5139276;27;20496;-51
2021/04/16 02:37:23;;;;;;;7.03;2.17;;;;;;;9.63;43.46;102356.84;5138065;27;20472;-53
2021/04/16 02:39:51;;;;;;;6.87;2.47;;;;;;;9.92;42.90;102357.13;5139106;27;20547;-51
2021/04/16 02:42:18;;;;;;;6.40;2.17;;;;;;;10.14;42.33;102354.34;5137758;27;20451;-50
2021/04/16 02:44:45;;;;;;;8.73;2.73;;;;;;;10.16;43.00;102357.06;5139166;27;20455;-56
2021/04/16 02:47:11;;;;;;;4.97;2.50;;;;;;;10.15;42.79;102353.56;5138260;27;20538;-53
2021/04/16 02:49:38;;;;;;;11.80;3.00;;;;;;;10.35;42.98;102347.19;5138975;27;20527;-54
2021/04/16 02:52:07;;;;;;;8.00;2.50;;;;;;;10.23;42.68;102346.38;5136563;27;20472;-55
2021/04/16 02:54:33;;;;;;;6.63;2.20;;;;;;;10.23;42.73;102351.53;5138919;27;20448;-53
2021/04/16 02:57:00;;;;;;;125.87;51.77;;;;;;;10.13;44.74;102352.56;5137815;27;20480;-51
2021/04/16 02:59:30;;;;;;;58.80;27.00;;;;;;;10.29;43.79;102354.53;5138912;27;20430;-52
2021/04/16 03:01:57;;;;;;;67.90;29.70;;;;;;;10.16;44.24;102347.66;5137338;27;20496;-49
2021/04/16 03:04:24;;;;;;;55.80;24.80;;;;;;;10.24;44.12;102343.00;5138912;27;20487;-49
2021/04/16 03:06:50;;;;;;;15.13;6.60;;;;;;;9.96;42.94;102348.81;5137297;27;20449;-52
2021/04/16 03:09:17;;;;;;;7.43;2.80;;;;;;;9.54;43.55;102341.63;5138726;27;20858;-53
2021/04/16 03:11:45;;;;;;;6.80;2.47;;;;;;;9.47;43.96;102341.13;5136767;27;20926;-51
2021/04/16 03:14:12;;;;;;;7.93;2.50;;;;;;;9.63;43.62;102340.53;5138678;27;20437;-50
2021/04/16 03:16:38;;;;;;;7.83;4.07;;;;;;;9.71;44.47;102341.94;5137702;27;20450;-50
2021/04/16 03:19:09;;;;;;;5.10;2.50;;;;;;;9.68;43.43;102344.28;5138725;27;20499;-55
2021/04/16 03:21:36;;;;;;;7.30;3.37;;;;;;;9.59;44.10;102348.03;5136903;27;20445;-50
2021/04/16 03:24:03;;;;;;;7.63;2.70;;;;;;;9.64;43.60;102339.72;5140990;27;20459;-53
2021/04/16 03:26:30;;;;;;;5.03;2.40;;;;;;;9.98;43.33;102343.00;5137202;27;20467;-51
2021/04/16 03:29:00;;;;;;;8.27;3.83;;;;;;;9.88;43.87;102353.44;5138278;27;20501;-50
2021/04/16 03:31:27;;;;;;;5.67;2.70;;;;;;;9.91;43.22;102352.75;5137315;27;20430;-51
2021/04/16 03:33:56;;;;;;;7.83;2.33;;;;;;;9.42;44.06;102354.56;5137997;27;20427;-52
2021/04/16 03:36:23;;;;;;;8.73;2.93;;;;;;;9.52;44.19;102353.53;5136532;27;20739;-51
2021/04/16 03:38:49;;;;;;;6.17;2.73;;;;;;;9.53;44.33;102355.31;5137954;27;20549;-49
2021/04/16 03:41:17;;;;;;;5.60;2.50;;;;;;;9.66;43.65;102354.53;5136770;27;20442;-52
2021/04/16 03:43:44;;;;;;;8.20;2.83;;;;;;;9.72;44.13;102354.94;5137341;27;20480;-50
2021/04/16 03:46:12;;;;;;;14.60;5.20;;;;;;;9.88;44.53;102356.03;5137557;27;20433;-55
2021/04/16 03:48:39;;;;;;;9.40;4.60;;;;;;;10.13;43.74;102348.31;5137964;27;20559;-49
2021/04/16 03:51:08;;;;;;;5.67;2.33;;;;;;;9.77;43.53;102354.38;5137886;27;20476;-50
2021/04/16 03:53:36;;;;;;;8.50;3.80;;;;;;;9.76;43.79;102345.75;5135975;27;20968;-51
2021/04/16 03:56:06;;;;;;;10.60;2.80;;;;;;;9.78;43.23;102340.69;5137553;27;20427;-52
2021/04/16 03:58:33;;;;;;;5.17;2.50;;;;;;;9.61;43.87;102344.66;5136328;27;20447;-49
2021/04/16 04:01:01;;;;;;;4.77;2.47;;;;;;;9.62;44.22;102352.50;5137467;27;20460;-50
2021/04/16 04:03:28;;;;;;;5.53;2.70;;;;;;;9.57;44.05;102348.69;5136572;27;20478;-50
2021/04/16 04:05:55;;;;;;;7.03;2.80;;;;;;;9.37;44.46;102350.75;5137254;27;20450;-52
2021/04/16 04:08:22;;;;;;;8.13;2.60;;;;;;;9.31;44.69;102343.47;5136433;27;20457;-49
2021/04/16 04:10:48;;;;;;;8.50;3.07;;;;;;;9.02;45.11;102346.47;5137416;27;20518;-50
2021/04/16 04:13:15;;;;;;;10.83;2.90;;;;;;;9.25;44.79;102343.03;5138302;27;20855;-50
2021/04/16 04:15:41;;;;;;;6.93;2.30;;;;;;;8.78;45.71;102342.22;5137547;27;20455;-49
2021/04/16 04:18:26;;;;;;;5.23;2.57;;;;;;;8.84;45.95;102340.88;5136619;27;20472;-55
2021/04/16 04:20:53;;;;;;;5.90;2.30;;;;;;;9.20;44.74;102352.09;5137115;27;20431;-53
2021/04/16 04:23:19;;;;;;;4.43;2.30;;;;;;;9.63;43.90;102349.13;5135531;27;20476;-50
2021/04/16 04:25:46;;;;;;;5.80;2.80;;;;;;;9.80;43.49;102347.75;5137010;27;20461;-52
2021/04/16 04:28:13;;;;;;;4.73;2.20;;;;;;;9.24;45.02;102358.38;5135720;27;20555;-53
2021/04/16 04:30:39;;;;;;;7.83;2.87;;;;;;;8.85;46.51;102347.81;5137214;27;20822;-50
2021/04/16 04:33:07;;;;;;;7.27;2.90;;;;;;;8.72;46.76;102349.47;5135983;27;20454;-52
2021/04/16 04:35:35;;;;;;;8.27;2.97;;;;;;;8.72;46.98;102349.47;5137033;27;20487;-50
2021/04/16 04:38:02;;;;;;;6.03;3.30;;;;;;;9.05;45.88;102347.63;5135544;27;20509;-52
2021/04/16 04:40:29;;;;;;;6.80;2.97;;;;;;;8.98;45.74;102350.50;5137130;27;20526;-53
2021/04/16 04:42:56;;;;;;;7.00;3.10;;;;;;;8.80;46.43;102346.56;5135276;27;20762;-50
2021/04/16 04:45:23;;;;;;;7.03;2.90;;;;;;;8.97;46.19;102346.16;5136864;27;20731;-53
2021/04/16 04:47:50;;;;;;;7.40;2.93;;;;;;;8.57;46.60;102353.47;5135092;27;20489;-49
2021/04/16 04:50:18;;;;;;;8.20;3.13;;;;;;;8.93;46.38;102346.72;5136565;27;20431;-50
2021/04/16 04:52:45;;;;;;;7.30;3.03;;;;;;;9.07;46.39;102355.44;5134869;27;20480;-50
2021/04/16 04:55:14;;;;;;;7.83;3.23;;;;;;;9.23;47.53;102351.44;5136713;27;20427;-49
2021/04/16 04:57:41;;;;;;;9.00;3.50;;;;;;;9.11;45.88;102351.41;5135384;27;20554;-53
2021/04/16 05:00:10;;;;;;;8.73;3.07;;;;;;;9.00;46.17;102348.97;5136498;27;20452;-54
2021/04/16 05:02:38;;;;;;;9.40;3.43;;;;;;;9.01;45.82;102348.16;5135261;27;20558;-49
2021/04/16 05:05:06;;;;;;;8.40;3.37;;;;;;;9.09;45.97;102355.56;5136326;27;20447;-50
2021/04/16 05:07:32;;;;;;;6.73;3.10;;;;;;;9.16;45.85;102350.06;5135334;27;20447;-53
2021/04/16 05:10:00;;;;;;;10.60;3.53;;;;;;;9.14;46.13;102356.81;5136430;27;20427;-50
2021/04/16 05:12:26;;;;;;;9.50;3.80;;;;;;;9.13;46.47;102357.59;5134801;27;20476;-51
2021/04/16 05:14:53;;;;;;;12.60;4.27;;;;;;;9.42;47.92;102363.94;5136387;27;20427;-50
2021/04/16 05:17:19;;;;;;;25.13;8.97;;;;;;;9.46;49.28;102368.53;5135441;27;20482;-49
2021/04/16 05:19:46;;;;;;;7.80;3.90;;;;;;;9.21;46.83;102364.19;5139206;27;20449;-53
2021/04/16 05:22:13;;;;;;;12.40;5.80;;;;;;;9.23;47.87;102365.19;5134470;27;20788;-53
2021/04/16 05:24:40;;;;;;;7.90;3.07;;;;;;;8.74;47.24;102358.22;5136294;27;20923;-50
2021/04/16 05:27:10;;;;;;;7.93;3.13;;;;;;;8.83;46.84;102357.09;5135021;27;20458;-52
2021/04/16 05:29:36;;;;;;;8.13;3.70;;;;;;;8.81;47.35;102353.53;5136306;27;20452;-50
2021/04/16 05:32:04;;;;;;;7.90;3.50;;;;;;;8.96;47.10;102354.66;5134867;27;20956;-49
2021/04/16 05:34:30;;;;;;;8.30;3.63;;;;;;;8.98;47.69;102359.94;5136295;27;20458;-51
2021/04/16 05:36:57;;;;;;;9.00;3.43;;;;;;;9.09;47.57;102363.28;5134855;27;20453;-49
2021/04/16 05:39:24;;;;;;;18.30;5.90;;;;;;;9.26;47.71;102364.50;5136172;27;20997;-49
2021/04/16 05:41:51;;;;;;;16.13;5.87;;;;;;;9.57;47.85;102367.63;5134482;27;20447;-52
2021/04/16 05:44:18;;;;;;;8.50;3.90;;;;;;;9.64;46.64;102360.34;5135886;27;20477;-51
2021/04/16 05:46:45;;;;;;;9.93;3.70;;;;;;;9.28;47.05;102363.84;5135191;27;20464;-50
2021/04/16 05:49:12;;;;;;;10.90;5.13;;;;;;;9.39;47.91;102367.19;5136313;27;20431;-49
2021/04/16 05:51:38;;;;;;;9.80;4.43;;;;;;;9.47;47.22;102364.31;5133887;27;20893;-50
2021/04/16 05:54:06;;;;;;;10.97;5.67;;;;;;;9.59;47.48;102366.06;5135664;27;20891;-50
2021/04/16 05:56:33;;;;;;;12.03;6.10;;;;;;;9.79;47.20;102374.31;5134568;27;20919;-54
2021/04/16 05:58:59;;;;;;;12.13;5.27;;;;;;;9.97;47.17;102381.56;5137527;27;20514;-53
2021/04/16 06:01:27;;;;;;;10.60;5.10;;;;;;;10.18;46.72;102370.94;5139135;27;20749;-51
2021/04/16 06:03:54;;;;;;;8.47;3.60;;;;;;;9.91;47.44;102373.38;5139886;27;20491;-52
2021/04/16 06:06:20;;;;;;;7.50;3.53;;;;;;;10.14;46.48;102375.00;5141158;27;20483;-51
2021/04/16 06:08:47;;;;;;;12.80;4.93;;;;;;;10.17;46.54;102374.31;5139671;27;20459;-50
2021/04/16 06:11:14;;;;;;;10.00;4.53;;;;;;;10.09;47.35;102377.25;5138575;27;20913;-56
2021/04/16 06:13:40;;;;;;;10.47;4.27;;;;;;;10.46;46.83;102367.72;5139367;27;20502;-50
2021/04/16 06:16:09;;;;;;;9.47;4.37;;;;;;;10.36;46.68;102382.53;5139781;27;20430;-51
2021/04/16 06:18:37;;;;;;;11.57;5.10;;;;;;;9.95;48.27;102377.97;5139355;27;20487;-50
2021/04/16 06:21:05;;;;;;;12.60;5.37;;;;;;;10.24;47.47;102372.28;5139512;27;20436;-52
2021/04/16 06:23:32;;;;;;;12.50;5.37;;;;;;;10.40;47.32;102374.22;5137987;27;20742;-53
2021/04/16 06:26:00;;;;;;;9.50;4.10;;;;;;;9.89;48.80;102378.44;5139395;27;20565;-49
2021/04/16 06:28:27;;;;;;;9.43;4.50;;;;;;;10.22;48.07;102384.19;5137883;27;20480;-48
2021/04/16 06:30:54;;;;;;;10.73;4.80;;;;;;;10.21;48.60;102381.47;5139253;27;20909;-52
2021/04/16 06:33:24;;;;;;;10.13;4.73;;;;;;;10.27;49.10;102381.91;5138377;27;20480;-51
2021/04/16 06:35:55;;;;;;;15.27;4.83;;;;;;;10.70;47.40;102383.97;5139478;27;20444;-50
2021/04/16 06:38:24;;;;;;;12.67;4.40;;;;;;;10.55;47.80;102383.81;5137858;27;20921;-51
2021/04/16 06:40:52;;;;;;;16.37;6.00;;;;;;;10.47;48.35;102385.88;5139126;27;20883;-52
2021/04/16 06:43:21;;;;;;;9.43;4.30;;;;;;;10.34;48.54;102383.22;5137646;27;20468;-51
2021/04/16 06:45:52;;;;;;;9.23;3.80;;;;;;;10.76;47.65;102383.47;5139178;27;20472;-54
2021/04/16 06:48:19;;;;;;;13.00;5.37;;;;;;;11.21;46.61;102389.00;5138119;27;20446;-49
2021/04/16 06:50:46;;;;;;;12.73;5.13;;;;;;;11.27;48.06;102380.78;5139123;27;20431;-54
2021/04/16 06:53:18;;;;;;;12.03;4.90;;;;;;;11.03;46.81;102383.53;5137017;27;20534;-51
2021/04/16 06:55:56;;;;;;;11.03;5.03;;;;;;;11.03;47.66;102380.94;5139233;27;20459;-49
2021/04/16 06:58:26;;;;;;;11.27;4.97;;;;;;;11.40;46.20;102379.84;5137632;27;20555;-49
2021/04/16 07:01:04;;;;;;;10.30;4.27;;;;;;;11.00;46.93;102380.72;5138826;27;20539;-50
2021/04/16 07:03:33;;;;;;;8.57;3.90;;;;;;;11.34;46.25;102382.94;5137775;27;20472;-53
2021/04/16 07:06:06;;;;;;;13.10;4.30;;;;;;;11.54;46.25;102373.00;5138690;27;20450;-50
2021/04/16 07:08:36;;;;;;;10.23;4.17;;;;;;;11.92;45.01;102381.34;5137447;27;20455;-52
2021/04/16 07:11:09;;;;;;;11.47;4.27;;;;;;;11.79;44.25;102379.72;5140234;27;20513;-50
2021/04/16 07:13:39;;;;;;;10.83;4.90;;;;;;;12.43;44.93;102379.31;5138071;27;20522;-52
2021/04/16 07:16:06;;;;;;;9.50;4.33;;;;;;;11.95;43.75;102381.56;5138497;27;20431;-53
2021/04/16 07:18:35;;;;;;;12.10;5.83;;;;;;;12.40;42.60;102381.72;5138010;27;20511;-52
2021/04/16 07:21:03;;;;;;;9.60;4.87;;;;;;;12.30;41.82;102372.50;5138598;27;20437;-50
2021/04/16 07:23:29;;;;;;;15.83;5.17;;;;;;;12.49;41.67;102376.19;5136871;27;20970;-50
2021/04/16 07:26:13;;;;;;;8.97;3.90;;;;;;;11.97;42.91;102375.69;5138296;27;20905;-50
2021/04/16 07:28:45;;;;;;;8.43;3.23;;;;;;;11.91;42.87;102367.56;5137910;27;20463;-53
2021/04/16 07:31:25;;;;;;;10.80;4.67;;;;;;;12.58;40.34;102369.00;5137748;27;20735;-53
2021/04/16 07:33:52;;;;;;;10.13;4.20;;;;;;;12.47;40.72;102377.81;5138094;27;20446;-50
2021/04/16 07:36:33;;;;;;;12.53;4.30;;;;;;;12.28;40.67;102379.28;5136957;27;20453;-52
2021/04/16 07:39:09;;;;;;;7.90;3.80;;;;;;;12.17;41.37;102375.13;5138027;27;20781;-49
2021/04/16 07:41:42;;;;;;;9.97;3.40;;;;;;;11.79;40.63;102374.53;5136479;27;20499;-54
2021/04/16 07:44:18;;;;;;;9.63;3.47;;;;;;;12.05;40.27;102383.94;5138109;27;20491;-51
2021/04/16 07:46:48;;;;;;;12.83;4.27;;;;;;;12.36;39.49;102380.63;5137241;27;20474;-48
2021/04/16 07:49:25;;;;;;;10.97;3.83;;;;;;;12.78;40.04;102370.13;5138116;27;20456;-52
2021/04/16 07:52:05;;;;;;;7.03;3.27;;;;;;;12.93;38.58;102379.63;5136368;27;20880;-51
2021/04/16 07:54:31;;;;;;;21.23;3.37;;;;;;;12.81;38.18;102380.69;5137546;27;20458;-51
2021/04/16 07:57:13;;;;;;;6.00;2.10;;;;;;;12.43;38.63;102381.91;5136664;27;20475;-51
2021/04/16 07:59:58;;;;;;;4.40;1.70;;;;;;;12.20;39.26;102376.22;5137090;27;20545;-51
2021/04/16 08:02:31;;;;;;;6.07;2.30;;;;;;;12.45;37.90;102380.28;5135947;27;20778;-50
2021/04/16 08:04:58;;;;;;;9.83;3.63;;;;;;;12.93;37.17;102377.03;5152429;27;20802;-53
2021/04/16 08:07:31;;;;;;;10.37;2.70;;;;;;;13.45;36.15;102381.72;5139459;27;20953;-50
2021/04/16 08:09:59;;;;;;;24.13;8.20;;;;;;;13.61;36.89;102388.66;5142833;27;20456;-52
2021/04/16 08:12:28;;;;;;;7.60;2.80;;;;;;;13.44;36.65;102390.25;5156195;27;20471;-50
2021/04/16 08:15:12;;;;;;;11.33;5.60;;;;;;;13.12;36.34;102391.06;5158305;27;20849;-51
2021/04/16 08:17:41;;;;;;;5.80;2.20;;;;;;;12.25;36.56;102386.88;5157356;27;20552;-54
2021/04/16 08:20:16;;;;;;;6.77;2.30;;;;;;;12.92;35.31;102383.03;5141026;27;20453;-49
2021/04/16 08:22:44;;;;;;;7.17;3.37;;;;;;;12.95;35.10;102384.09;5135269;27;20480;-50
2021/04/16 08:25:13;;;;;;;4.83;1.70;;;;;;;13.04;33.97;102383.75;5136979;27;20488;-51
2021/04/16 08:27:43;;;;;;;8.37;2.47;;;;;;;13.50;33.85;102382.00;5135759;27;20529;-52
2021/04/16 08:30:16;;;;;;;7.77;2.57;;;;;;;13.27;32.72;102378.97;5137018;27;20446;-51
2021/04/16 08:32:46;;;;;;;14.03;3.00;;;;;;;13.44;33.24;102376.44;5136007;27;20463;-50
2021/04/16 08:35:30;;;;;;;6.70;2.30;;;;;;;12.89;33.42;102375.06;5138529;27;20460;-54
2021/04/16 08:38:01;;;;;;;4.70;1.80;;;;;;;13.08;33.79;102369.25;5136030;27;20445;-51
2021/04/16 08:40:30;;;;;;;5.37;1.70;;;;;;;12.62;32.95;102380.41;5136788;27;20497;-53
2021/04/16 08:42:58;;;;;;;5.60;2.23;;;;;;;13.32;33.53;102380.13;5135156;27;20476;-53
2021/04/16 08:45:27;;;;;;;7.90;2.07;;;;;;;13.59;32.71;102373.84;5136662;27;20480;-55
2021/04/16 08:47:56;;;;;;;9.13;3.40;;;;;;;13.60;33.09;102370.44;5135892;27;20481;-49
2021/04/16 08:50:27;;;;;;;21.27;11.60;;;;;;;13.82;32.62;102372.50;5136550;27;20507;-49
2021/04/16 08:52:56;;;;;;;5.07;2.20;;;;;;;14.02;32.23;102364.88;5134850;27;20474;-50
2021/04/16 08:55:28;;;;;;;8.50;2.77;;;;;;;14.27;32.22;102364.47;5136520;27;20457;-50
2021/04/16 08:57:58;;;;;;;5.97;2.07;;;;;;;14.30;31.98;102367.22;5135399;27;20986;-51
2021/04/16 09:00:33;;;;;;;7.57;2.80;;;;;;;14.62;32.05;102364.50;5136276;27;20538;-55
2021/04/16 09:03:00;;;;;;;6.47;2.67;;;;;;;14.18;31.44;102363.97;5135443;27;20529;-52
2021/04/16 09:05:30;;;;;;;8.40;3.30;;;;;;;14.60;30.73;102363.53;5136260;27;20497;-52
2021/04/16 09:08:18;;;;;;;5.13;2.00;;;;;;;14.19;31.83;102363.16;5134900;27;20488;-49
2021/04/16 09:10:46;;;;;;;9.13;3.90;;;;;;;14.49;30.70;102375.06;5148071;27;20779;-51
2021/04/16 09:13:55;;;;;;;6.70;2.17;;;;;;;14.52;29.84;102364.84;5155367;27;20474;-51
2021/04/16 09:16:51;;;;;;;5.77;1.80;;;;;;;14.71;30.45;102364.97;5152903;27;20454;-51
2021/04/16 09:19:40;;;;;;;7.20;2.17;;;;;;;14.63;30.66;102361.09;5137816;27;20471;-51
2021/04/16 09:22:24;;;;;;;5.00;1.90;;;;;;;14.29;30.73;102370.63;5134116;27;20945;-53
2021/04/16 09:24:53;;;;;;;5.73;2.40;;;;;;;14.54;30.67;102366.72;5136047;27;20908;-52
2021/04/16 09:27:35;;;;;;;4.80;1.57;;;;;;;13.92;31.01;102358.31;5134817;27;20787;-49
2021/04/16 09:30:38;;;;;;;6.83;2.20;;;;;;;13.90;30.15;102362.53;5136190;28;20757;-52
2021/04/16 09:33:19;;;;;;;7.30;3.10;;;;;;;14.10;30.03;102365.28;5134845;27;20476;-55
2021/04/16 09:36:05;;;;;;;5.33;1.90;;;;;;;14.65;29.73;102364.66;5140355;27;20503;-51
2021/04/16 09:38:57;;;;;;;5.13;2.33;;;;;;;14.87;29.84;102363.16;5138443;27;20470;-51
2021/04/16 09:41:34;;;;;;;5.97;1.73;;;;;;;14.53;29.81;102358.84;5137845;27;20535;-50
2021/04/16 09:44:32;;;;;;;5.17;1.50;;;;;;;15.38;28.81;102365.63;5140060;27;20545;-50
2021/04/16 09:47:02;;;;;;;3.63;1.10;;;;;;;13.93;29.91;102361.81;5139346;27;20573;-52
2021/04/16 09:49:32;;;;;;;6.37;1.70;;;;;;;14.49;29.14;102356.88;5140273;27;20429;-54
2021/04/16 09:52:00;;;;;;;4.93;1.80;;;;;;;14.89;29.56;102358.03;5137305;27;20471;-52
2021/04/16 09:54:38;;;;;;;4.20;1.60;;;;;;;14.61;28.81;102357.50;5119085;27;20456;-49
2021/04/16 09:57:27;;;;;;;4.97;1.40;;;;;;;14.57;29.27;102359.06;5118107;28;20470;-52
2021/04/16 09:59:55;;;;;;;5.20;2.13;;;;;;;14.77;30.41;102358.31;5119483;28;20464;-52
2021/04/16 10:02:38;;;;;;;8.47;2.10;;;;;;;15.11;29.54;102355.69;5131332;27;20841;-53
2021/04/16 10:05:11;;;;;;;10.50;1.90;;;;;;;15.62;27.86;102348.47;5139598;27;20485;-50
2021/04/16 10:07:40;;;;;;;3.30;1.10;;;;;;;14.47;28.59;102349.03;5138554;27;20476;-52
2021/04/16 10:10:13;;;;;;;5.00;2.00;;;;;;;15.07;28.74;102355.47;5145945;27;20766;-52
2021/04/16 10:12:40;;;;;;;4.57;1.50;;;;;;;14.76;28.83;102351.34;5158790;27;20506;-50
2021/04/16 10:15:19;;;;;;;6.60;1.77;;;;;;;15.41;28.97;102354.47;5160402;27;20443;-50
2021/04/16 10:18:00;;;;;;;9.30;1.83;;;;;;;15.70;28.71;102352.34;5138496;27;20466;-52
2021/04/16 10:20:38;;;;;;;4.40;1.97;;;;;;;15.55;28.09;102349.94;5139571;27;20508;-51
2021/04/16 10:23:13;;;;;;;5.07;1.33;;;;;;;15.57;27.64;102342.16;5137947;27;20481;-50
2021/04/16 12:38:24;;;;;;;5.43;1.20;;;;;;;18.04;25.56;102283.50;5134589;27;20774;-52
2021/04/16 12:40:51;;;;;;;5.77;1.40;;;;;;;17.26;25.88;102278.09;5136220;27;20451;-51
2021/04/16 12:43:17;;;;;;;26.10;11.23;;;;;;;17.51;27.43;102276.41;5127982;27;20495;-54
2021/04/16 12:45:44;;;;;;;8.83;4.00;;;;;;;18.13;25.59;102263.00;5122302;27;20771;-53
2021/04/16 12:48:11;;;;;;;8.07;3.00;;;;;;;17.93;25.72;102270.97;5124191;27;20488;-55
2021/04/16 12:50:38;;;;;;;7.80;2.60;;;;;;;17.23;26.65;102264.97;5123949;27;20787;-52
2021/04/16 12:53:05;;;;;;;10.07;1.70;;;;;;;16.29;26.13;102261.22;5114648;27;20924;-54
2021/04/16 12:55:31;;;;;;;5.00;1.20;;;;;;;16.15;26.45;102267.56;5133876;27;20502;-52
2021/04/16 12:58:00;;;;;;;8.93;1.90;;;;;;;16.46;25.29;102268.88;5134820;27;20479;-51
2021/04/16 13:00:29;;;;;;;5.73;2.07;;;;;;;17.31;25.25;102267.84;5156695;27;20465;-49
2021/04/16 13:02:58;;;;;;;20.17;9.17;;;;;;;18.23;25.56;102279.84;5150900;27;20923;-52
2021/04/16 13:05:26;;;;;;;5.97;1.33;;;;;;;17.28;25.32;102279.06;5136782;27;20515;-50
2021/04/16 13:07:53;;;;;;;9.97;2.80;;;;;;;18.08;24.60;102269.78;5134699;27;20556;-53
2021/04/16 13:10:21;;;;;;;13.57;6.50;;;;;;;18.66;25.12;102274.28;5136185;27;20458;-53
2021/04/16 13:12:47;;;;;;;6.80;3.23;;;;;;;18.42;24.54;102270.94;5151133;27;20471;-52
2021/04/16 13:15:15;;;;;;;5.10;1.80;;;;;;;18.33;24.62;102270.59;5157099;27;20458;-50
2021/04/16 13:17:45;;;;;;;22.30;14.23;;;;;;;18.48;24.97;102263.28;5152906;27;20999;-50
2021/04/16 13:20:14;;;;;;;15.13;6.03;;;;;;;18.80;24.69;102272.09;5157056;27;20541;-52
2021/04/16 13:22:41;;;;;;;9.30;3.67;;;;;;;18.72;24.97;102264.03;5155196;27;20935;-54
2021/04/16 13:25:10;;;;;;;6.00;1.93;;;;;;;17.34;24.62;102258.41;5157189;27;20458;-53
2021/04/16 13:27:37;;;;;;;4.87;1.40;;;;;;;16.52;25.65;102261.31;5155839;27;20474;-53
2021/04/16 13:30:05;;;;;;;11.10;4.67;;;;;;;18.14;25.21;102264.75;5139094;27;20452;-52
2021/04/16 13:32:36;;;;;;;7.00;1.47;;;;;;;18.06;24.01;102258.41;5135053;27;20483;-52
2021/04/16 13:35:03;;;;;;;7.43;3.10;;;;;;;18.48;24.42;102260.69;5136249;27;20456;-51
2021/04/16 13:37:32;;;;;;;8.67;2.23;;;;;;;18.39;24.12;102249.91;5134711;27;20492;-51
2021/04/16 13:39:58;;;;;;;3.37;1.20;;;;;;;17.92;24.40;102256.16;5136374;27;20458;-51
2021/04/16 13:42:26;;;;;;;6.63;1.93;;;;;;;17.68;24.54;102257.06;5134535;27;20483;-50
2021/04/16 13:44:53;;;;;;;4.33;1.70;;;;;;;17.17;24.87;102249.06;5136139;27;20460;-50
2021/04/16 13:47:21;;;;;;;18.67;8.30;;;;;;;18.05;25.62;102253.97;5135181;27;20478;-52
2021/04/16 13:49:48;;;;;;;7.80;2.50;;;;;;;18.98;24.08;102248.28;5136138;27;20466;-53